createdAt,value
2018-04-15T00:00:06.563Z,91.20
2018-04-15T00:02:36.343Z,91.70
2018-04-15T00:05:06.942Z,90.80
2018-04-15T00:07:37.457Z,90.80
2018-04-15T00:10:07.814Z,87.70
2018-04-15T00:12:38.801Z,90.30
2018-04-15T00:15:09.115Z,90.30
2018-04-15T00:17:38.996Z,90.80
2018-04-15T00:20:10.347Z,91.30
2018-04-15T00:22:41.842Z,91.70
2018-04-15T00:25:13.047Z,91.70
2018-04-15T00:27:42.794Z,90.10
2018-04-15T00:30:14.153Z,83.90
2018-04-15T00:32:43.943Z,83.90
2018-04-15T00:35:14.443Z,81.70
2018-04-15T00:37:45.616Z,79.70
2018-04-15T00:40:16.002Z,79.50
2018-04-15T00:42:47.544Z,80.40
2018-04-15T00:45:18.131Z,79.60
2018-04-15T00:47:48.243Z,79.50
2018-04-15T00:50:19.526Z,79.80
2018-04-15T00:52:50.330Z,83.10
2018-04-15T00:55:22.080Z,82.60
2018-04-15T00:57:52.303Z,85.10
2018-04-15T01:00:22.364Z,85.70
2018-04-15T01:02:53.525Z,87.00
2018-04-15T01:05:23.677Z,87.00
2018-04-15T01:07:54.004Z,86.50
2018-04-15T01:10:23.952Z,88.30
2018-04-15T01:12:54.434Z,88.80
2018-04-15T01:15:27.392Z,88.90
2018-04-15T01:17:57.203Z,88.90
2018-04-15T01:20:27.105Z,89.40
2018-04-15T01:22:57.439Z,90.00
2018-04-15T01:25:27.540Z,90.00
2018-04-15T01:27:57.459Z,90.30
2018-04-15T01:30:27.427Z,90.50
2018-04-15T01:32:58.133Z,90.80
2018-04-15T01:35:28.180Z,90.80
2018-04-15T01:37:58.363Z,90.80
2018-04-15T01:40:29.362Z,91.20
2018-04-15T01:42:59.770Z,91.20
2018-04-15T01:45:30.557Z,91.20
2018-04-15T01:48:00.833Z,91.40
2018-04-15T01:50:31.167Z,91.50
2018-04-15T01:53:01.703Z,91.80
2018-04-15T01:55:32.193Z,91.90
2018-04-15T01:58:03.255Z,92.20
2018-04-15T02:00:33.890Z,92.10
2018-04-15T02:03:04.225Z,92.40
2018-04-15T02:05:34.610Z,92.50
2018-04-15T02:08:05.596Z,92.50
2018-04-15T02:10:35.453Z,92.50
2018-04-15T02:13:05.440Z,92.60
2018-04-15T02:15:35.613Z,92.70
2018-04-15T02:18:06.187Z,92.90
2018-04-15T02:20:36.700Z,92.90
2018-04-15T02:23:07.122Z,92.90
2018-04-15T02:25:36.913Z,92.90
2018-04-15T02:28:07.137Z,92.90
2018-04-15T02:30:37.380Z,92.90
2018-04-15T02:33:13.095Z,92.90
2018-04-15T02:35:43.741Z,91.30
2018-04-15T02:38:13.742Z,91.30
2018-04-15T02:40:44.259Z,87.20
2018-04-15T02:43:15.517Z,85.60
2018-04-15T02:45:46.280Z,83.50
2018-04-15T02:48:16.697Z,83.40
2018-04-15T02:50:47.030Z,81.80
2018-04-15T02:53:17.244Z,79.90
2018-04-15T02:55:47.879Z,78.80
2018-04-15T02:58:18.401Z,77.70
2018-04-15T03:00:48.535Z,77.70
2018-04-15T03:03:18.613Z,77.00
2018-04-15T03:05:49.198Z,78.90
2018-04-15T03:08:19.783Z,79.00
2018-04-15T03:10:51.116Z,80.10
2018-04-15T03:13:21.917Z,80.10
2018-04-15T03:15:52.377Z,81.00
2018-04-15T03:18:23.417Z,81.10
2018-04-15T03:20:54.358Z,82.00
2018-04-15T03:23:24.147Z,82.20
2018-04-15T03:25:54.497Z,82.40
2018-04-15T03:28:24.436Z,82.70
2018-04-15T03:30:56.899Z,83.30
2018-04-15T03:33:28.488Z,83.60
2018-04-15T03:36:00.530Z,83.60
2018-04-15T03:38:30.344Z,84.50
2018-04-15T03:41:00.091Z,84.70
2018-04-15T03:43:30.399Z,85.20
2018-04-15T03:46:01.441Z,86.00
2018-04-15T03:48:31.743Z,87.20
2018-04-15T03:51:03.011Z,88.60
2018-04-15T03:53:33.442Z,89.00
2018-04-15T03:56:03.731Z,89.90
2018-04-15T03:58:34.736Z,90.30
2018-04-15T04:01:05.048Z,90.30
2018-04-15T04:03:35.652Z,90.60
2018-04-15T04:06:05.873Z,90.70
2018-04-15T04:08:36.742Z,90.50
2018-04-15T04:11:07.233Z,90.40
2018-04-15T04:13:37.575Z,89.90
2018-04-15T04:16:08.004Z,90.60
2018-04-15T04:22:02.391Z,90.60
2018-04-15T04:24:43.936Z,90.70
2018-04-15T04:27:13.753Z,90.90
2018-04-15T04:29:44.688Z,91.20
2018-04-15T04:32:15.110Z,91.30
2018-04-15T04:34:45.387Z,91.30
2018-04-15T04:37:15.881Z,91.10
2018-04-15T04:39:47.294Z,91.30
2018-04-15T04:42:18.609Z,90.70
2018-04-15T04:44:49.120Z,90.70
2018-04-15T04:47:19.044Z,91.30
2018-04-15T04:49:49.355Z,90.90
2018-04-15T04:52:20.737Z,91.20
2018-04-15T04:54:50.731Z,90.90
2018-04-15T04:57:20.982Z,91.00
2018-04-15T04:59:51.465Z,91.00
2018-04-15T05:02:22.539Z,90.90
2018-04-15T05:04:52.868Z,90.80
2018-04-15T05:07:24.025Z,91.00
2018-04-15T05:09:54.327Z,90.90
2018-04-15T05:12:24.832Z,91.40
2018-04-15T05:14:54.641Z,91.00
2018-04-15T05:17:26.517Z,90.90
2018-04-15T05:19:57.022Z,90.80
2018-04-15T05:22:27.053Z,91.00
2018-04-15T05:24:57.571Z,90.90
2018-04-15T05:27:29.228Z,90.90
2018-04-15T05:30:00.404Z,90.80
2018-04-15T05:32:30.503Z,90.80
2018-04-15T05:35:02.083Z,90.90
2018-04-15T05:37:32.378Z,90.90
2018-04-15T05:40:03.615Z,90.80
2018-04-15T05:42:34.495Z,90.70
2018-04-15T05:45:04.915Z,90.70
2018-04-15T05:47:35.474Z,90.70
2018-04-15T05:50:05.873Z,90.80
2018-04-15T05:52:36.465Z,90.70
2018-04-15T05:55:07.624Z,90.70
2018-04-15T05:57:37.698Z,90.70
2018-04-15T06:00:08.048Z,90.70
2018-04-15T06:02:39.219Z,90.70
2018-04-15T06:05:09.653Z,91.00
2018-04-15T06:07:39.877Z,90.60
2018-04-15T06:10:10.463Z,90.90
2018-04-15T06:12:41.412Z,90.70
2018-04-15T06:15:11.637Z,90.50
2018-04-15T06:17:43.575Z,90.70
2018-04-15T06:20:13.807Z,90.70
2018-04-15T06:22:44.936Z,90.80
2018-04-15T06:25:15.611Z,90.70
2018-04-15T06:27:46.118Z,90.60
2018-04-15T06:30:16.802Z,90.60
2018-04-15T06:32:47.538Z,90.60
2018-04-15T06:35:17.925Z,90.70
2018-04-15T06:37:49.068Z,90.60
2018-04-15T06:40:19.503Z,90.60
2018-04-15T06:42:49.757Z,90.40
2018-04-15T06:45:20.019Z,90.40
2018-04-15T06:47:50.383Z,90.50
2018-04-15T06:50:20.331Z,90.40
2018-04-15T06:52:51.510Z,90.40
2018-04-15T06:55:21.299Z,90.40
2018-04-15T06:57:56.484Z,90.30
2018-04-15T07:00:26.894Z,90.30
2018-04-15T07:02:58.934Z,90.20
2018-04-15T07:05:28.775Z,90.20
2018-04-15T07:07:59.756Z,90.20
2018-04-15T07:10:30.064Z,90.10
2018-04-15T07:12:59.852Z,90.10
2018-04-15T07:15:31.081Z,90.00
2018-04-15T07:18:02.537Z,90.20
2018-04-15T07:20:33.708Z,89.70
2018-04-15T07:23:04.247Z,89.70
2018-04-15T07:25:34.628Z,89.50
2018-04-15T07:28:05.867Z,89.40
2018-04-15T07:30:36.125Z,89.30
2018-04-15T07:33:06.455Z,89.30
2018-04-15T07:35:36.971Z,89.30
2018-04-15T07:38:07.274Z,89.20
2018-04-15T07:40:38.319Z,89.10
2018-04-15T07:43:11.203Z,89.00
2018-04-15T07:45:41.826Z,89.00
2018-04-15T07:48:13.224Z,88.90
2018-04-15T07:50:43.554Z,88.80
2018-04-15T07:53:13.853Z,88.70
2018-04-15T07:55:44.188Z,88.60
2018-04-15T07:58:14.426Z,88.40
2018-04-15T08:00:44.748Z,88.50
2018-04-15T08:03:15.082Z,88.40
2018-04-15T08:05:45.658Z,88.30
2018-04-15T08:08:16.617Z,88.30
2018-04-15T08:10:47.028Z,88.20
2018-04-15T08:13:18.090Z,88.20
2018-04-15T08:15:48.589Z,88.30
2018-04-15T08:18:19.362Z,88.50
2018-04-15T08:20:49.840Z,88.30
2018-04-15T08:23:22.031Z,88.50
2018-04-15T08:25:52.973Z,88.40
2018-04-15T08:28:22.797Z,88.20
2018-04-15T08:30:53.184Z,88.10
2018-04-15T08:33:24.693Z,88.60
2018-04-15T08:35:55.045Z,88.00
2018-04-15T08:38:25.059Z,87.80
2018-04-15T08:40:55.433Z,87.80
2018-04-15T08:43:25.246Z,87.80
2018-04-15T08:45:55.143Z,87.70
2018-04-15T08:48:25.952Z,87.40
2018-04-15T08:50:55.823Z,87.40
2018-04-15T08:53:26.481Z,87.50
2018-04-15T08:55:56.855Z,87.40
2018-04-15T08:58:27.836Z,87.20
2018-04-15T09:00:58.046Z,87.10
2018-04-15T09:03:28.708Z,87.20
2018-04-15T09:05:59.104Z,87.20
2018-04-15T09:08:29.597Z,87.10
2018-04-15T09:11:00.679Z,87.00
2018-04-15T09:13:30.497Z,87.00
2018-04-15T09:16:00.716Z,86.90
2018-04-15T09:18:31.067Z,86.90
2018-04-15T09:21:00.838Z,86.80
2018-04-15T09:23:31.170Z,86.70
2018-04-15T09:26:01.591Z,86.70
2018-04-15T09:28:31.388Z,86.70
2018-04-15T09:31:06.813Z,86.70
2018-04-15T09:33:38.971Z,86.60
2018-04-15T09:36:09.041Z,86.70
2018-04-15T09:38:38.990Z,86.60
2018-04-15T09:41:09.481Z,86.60
2018-04-15T09:43:39.766Z,86.50
2018-04-15T09:46:11.592Z,85.90
2018-04-15T09:48:41.758Z,85.90
2018-04-15T09:51:12.772Z,84.50
2018-04-15T09:53:43.111Z,84.50
2018-04-15T09:56:14.775Z,84.10
2018-04-15T09:58:44.679Z,84.10
2018-04-15T10:01:18.260Z,84.40
2018-04-15T10:03:48.598Z,84.30
2018-04-15T10:06:19.791Z,85.00
2018-04-15T10:08:51.193Z,85.00
2018-04-15T10:11:21.670Z,85.20
2018-04-15T10:13:51.884Z,85.30
2018-04-15T10:16:22.732Z,86.50
2018-04-15T10:18:52.671Z,85.90
2018-04-15T10:21:23.459Z,86.00
2018-04-15T10:23:57.051Z,86.00
2018-04-15T10:26:26.920Z,87.10
2018-04-15T10:28:58.498Z,87.40
2018-04-15T10:31:29.503Z,87.00
2018-04-15T10:33:59.798Z,87.00
2018-04-15T10:36:30.314Z,86.60
2018-04-15T10:39:00.312Z,86.50
2018-04-15T10:41:31.386Z,85.60
2018-04-15T10:44:01.884Z,85.50
2018-04-15T10:46:33.128Z,85.80
2018-04-15T10:49:05.143Z,86.00
2018-04-15T10:51:35.247Z,85.90
2018-04-15T10:54:05.767Z,86.00
2018-04-15T10:56:35.946Z,86.00
2018-04-15T10:59:06.331Z,86.30
2018-04-15T11:01:36.448Z,86.00
2018-04-15T11:04:06.397Z,86.30
2018-04-15T11:06:36.693Z,86.30
2018-04-15T11:09:08.041Z,86.40
2018-04-15T11:11:38.574Z,86.00
2018-04-15T11:14:08.951Z,86.80
2018-04-15T11:16:39.960Z,86.70
2018-04-15T11:19:10.066Z,86.70
2018-04-15T11:21:39.920Z,86.60
2018-04-15T11:24:11.076Z,86.80
2018-04-15T11:26:42.230Z,86.80
2018-04-15T11:29:12.061Z,86.80
2018-04-15T11:31:42.652Z,86.80
2018-04-15T11:34:13.265Z,88.00
2018-04-15T11:36:43.470Z,88.00
2018-04-15T11:39:13.884Z,88.00
2018-04-15T11:41:44.669Z,88.00
2018-04-15T11:44:16.412Z,88.90
2018-04-15T11:46:46.686Z,88.90
2018-04-15T11:49:17.085Z,89.30
2018-04-15T11:51:47.400Z,89.00
2018-04-15T11:54:18.509Z,88.40
2018-04-15T11:56:48.560Z,88.50
2018-04-15T11:59:19.449Z,87.70
2018-04-15T12:01:49.919Z,87.70
2018-04-15T12:04:21.502Z,87.40
2018-04-15T12:06:52.221Z,87.40
2018-04-15T12:09:22.181Z,87.20
2018-04-15T12:11:52.576Z,87.10
2018-04-15T12:14:22.913Z,87.80
2018-04-15T12:16:53.296Z,86.90
2018-04-15T12:19:23.563Z,86.80
2018-04-15T12:21:53.909Z,87.10
2018-04-15T12:24:24.468Z,87.20
2018-04-15T12:26:55.433Z,87.40
2018-04-15T12:29:26.067Z,87.80
2018-04-15T12:31:56.430Z,87.80
2018-04-15T12:34:26.757Z,88.10
2018-04-15T12:36:57.261Z,88.00
2018-04-15T12:39:28.002Z,87.70
2018-04-15T12:41:58.307Z,87.90
2018-04-15T12:44:28.555Z,88.30
2018-04-15T12:46:58.837Z,88.40
2018-04-15T12:49:30.066Z,88.50
2018-04-15T12:52:01.074Z,88.50
2018-04-15T12:54:31.218Z,88.40
2018-04-15T12:57:01.560Z,88.80
2018-04-15T12:59:32.660Z,89.60
2018-04-15T13:02:02.962Z,90.10
2018-04-15T13:04:33.184Z,89.90
2018-04-15T13:07:03.333Z,89.80
2018-04-15T13:09:33.397Z,89.60
2018-04-15T13:12:04.666Z,89.70
2018-04-15T13:14:35.368Z,89.70
2018-04-15T13:17:06.058Z,90.10
2018-04-15T13:19:36.293Z,90.10
2018-04-15T13:22:07.177Z,90.10
2018-04-15T13:24:38.449Z,90.10
2018-04-15T13:27:08.478Z,90.30
2018-04-15T13:29:39.078Z,90.50
2018-04-15T13:32:09.320Z,90.40
2018-04-15T13:34:39.380Z,90.20
2018-04-15T13:37:09.673Z,90.20
2018-04-15T13:39:39.667Z,90.30
2018-04-15T13:42:10.057Z,90.40
2018-04-15T13:44:41.261Z,90.10
2018-04-15T13:47:11.533Z,90.10
2018-04-15T13:49:42.571Z,90.10
2018-04-15T13:52:13.550Z,90.00
2018-04-15T13:54:43.792Z,90.00
2018-04-15T13:57:14.312Z,90.10
2018-04-15T13:59:45.186Z,90.40
2018-04-15T14:02:15.781Z,90.60
2018-04-15T14:04:45.963Z,90.50
2018-04-15T14:07:17.047Z,90.50
2018-04-15T14:09:47.355Z,90.50
2018-04-15T14:12:17.687Z,90.40
2018-04-15T14:14:47.969Z,90.10
2018-04-15T14:17:19.062Z,90.00
2018-04-15T14:19:51.378Z,90.00
2018-04-15T14:22:22.655Z,89.20
2018-04-15T14:24:52.892Z,89.20
2018-04-15T14:27:25.049Z,89.70
2018-04-15T14:29:54.962Z,89.60
2018-04-15T14:32:25.184Z,89.60
2018-04-15T14:34:55.336Z,89.50
2018-04-15T14:37:25.470Z,89.60
2018-04-15T14:39:55.678Z,89.80
2018-04-15T14:42:26.036Z,89.50
2018-04-15T14:44:57.034Z,89.80
2018-04-15T14:47:27.209Z,89.70
2018-04-15T14:49:58.301Z,89.80
2018-04-15T14:52:28.595Z,89.80
2018-04-15T14:54:59.039Z,90.00
2018-04-15T14:57:29.497Z,90.00
2018-04-15T14:59:59.301Z,90.00
2018-04-15T15:02:29.963Z,90.00
2018-04-15T15:05:01.389Z,90.10
2018-04-15T15:07:32.344Z,90.20
2018-04-15T15:10:03.582Z,90.30
2018-04-15T15:12:33.978Z,90.10
2018-04-15T15:15:05.461Z,90.30
2018-04-15T15:17:35.451Z,90.30
2018-04-15T15:20:05.334Z,90.40
2018-04-15T15:22:37.141Z,90.30
2018-04-15T15:25:06.963Z,90.30
2018-04-15T15:27:37.378Z,90.40
2018-04-15T15:30:07.435Z,90.50
2018-04-15T15:32:39.532Z,90.60
2018-04-15T15:35:10.541Z,90.60
2018-04-15T15:37:41.140Z,90.50
2018-04-15T15:40:11.096Z,90.40
2018-04-15T15:42:41.087Z,87.30
2018-04-15T15:45:12.150Z,82.30
2018-04-15T15:47:42.369Z,82.30
2018-04-15T15:50:12.176Z,79.50
2018-04-15T15:52:42.919Z,74.60
2018-04-15T15:55:12.714Z,74.50
2018-04-15T15:57:43.314Z,70.70
2018-04-15T16:00:13.253Z,70.70
2018-04-15T16:02:43.079Z,69.40
2018-04-15T16:05:14.059Z,66.70
2018-04-15T16:07:44.458Z,66.80
2018-04-15T16:10:14.884Z,67.20
2018-04-15T16:12:44.954Z,69.80
2018-04-15T16:15:15.392Z,70.00
2018-04-15T16:17:45.507Z,67.20
2018-04-15T16:20:16.070Z,66.40
2018-04-15T16:22:46.015Z,65.30
2018-04-15T16:25:16.315Z,65.60
2018-04-15T16:27:46.269Z,69.10
2018-04-15T16:30:16.486Z,70.50
2018-04-15T16:32:47.444Z,66.60
2018-04-15T16:35:17.374Z,65.80
2018-04-15T16:37:48.552Z,68.30
2018-04-15T16:40:18.811Z,68.30
2018-04-15T16:42:49.201Z,70.60
2018-04-15T16:45:19.323Z,72.30
2018-04-15T16:47:50.029Z,69.20
2018-04-15T16:50:20.411Z,67.30
2018-04-15T16:52:50.719Z,66.00
2018-04-15T16:55:20.716Z,68.20
2018-04-15T16:57:51.163Z,71.40
2018-04-15T17:00:21.489Z,72.80
2018-04-15T17:02:51.712Z,69.50
2018-04-15T17:05:22.186Z,68.10
2018-04-15T17:07:53.176Z,71.40
2018-04-15T17:10:23.676Z,71.30
2018-04-15T17:12:54.718Z,72.20
2018-04-15T17:15:24.962Z,72.20
2018-04-15T17:17:55.296Z,70.20
2018-04-15T17:20:25.351Z,68.40
2018-04-15T17:22:55.448Z,70.30
2018-04-15T17:25:26.278Z,74.40
2018-04-15T17:27:56.571Z,74.40
2018-04-15T17:30:26.765Z,71.60
2018-04-15T17:32:58.057Z,69.80
2018-04-15T17:35:27.856Z,70.50
2018-04-15T17:37:57.678Z,72.40
2018-04-15T17:40:27.560Z,74.50
2018-04-15T17:42:58.132Z,71.10
2018-04-15T17:45:27.906Z,71.10
2018-04-15T17:47:58.553Z,71.60
2018-04-15T17:50:28.371Z,71.60
2018-04-15T17:52:58.146Z,73.60
2018-04-15T17:55:28.743Z,72.10
2018-04-15T17:57:58.512Z,72.00
2018-04-15T18:00:28.294Z,70.20
2018-04-15T18:02:58.423Z,72.80
2018-04-15T18:05:29.021Z,76.80
2018-04-15T18:07:58.869Z,76.70
2018-04-15T18:10:29.399Z,71.10
2018-04-15T18:13:01.057Z,73.00
2018-04-15T18:15:32.240Z,75.10
2018-04-15T18:18:04.398Z,76.90
2018-04-15T18:20:34.823Z,76.80
2018-04-15T18:23:05.050Z,73.50
2018-04-15T18:25:35.098Z,71.10
2018-04-15T18:28:05.682Z,74.00
2018-04-15T18:30:36.700Z,76.20
2018-04-15T18:33:07.266Z,73.50
2018-04-15T18:35:37.032Z,73.50
2018-04-15T18:38:06.788Z,71.20
2018-04-15T18:40:36.577Z,73.10
2018-04-15T18:43:06.387Z,75.30
2018-04-15T18:45:36.236Z,77.10
2018-04-15T18:48:05.983Z,73.70
2018-04-15T18:50:36.191Z,71.70
2018-04-15T18:53:07.101Z,74.00
2018-04-15T18:55:36.899Z,76.10
2018-04-15T18:58:06.783Z,77.70
2018-04-15T19:00:37.726Z,72.80
2018-04-15T19:03:08.603Z,75.00
2018-04-15T19:05:38.525Z,74.90
2018-04-15T19:08:08.648Z,77.00
2018-04-15T19:10:38.551Z,78.30
2018-04-15T19:13:09.828Z,73.90
2018-04-15T19:15:39.591Z,73.00
2018-04-15T19:18:09.355Z,75.60
2018-04-15T19:20:39.199Z,77.50
2018-04-15T19:23:09.721Z,73.80
2018-04-15T19:25:40.299Z,74.40
2018-04-15T19:28:10.423Z,73.60
2018-04-15T19:30:40.225Z,75.80
2018-04-15T19:33:10.024Z,77.60
2018-04-15T19:35:39.974Z,77.20
2018-04-15T19:38:11.006Z,75.60
2018-04-15T19:40:40.796Z,75.60
2018-04-15T19:43:10.851Z,77.60
2018-04-15T19:45:40.926Z,79.30
2018-04-15T19:48:12.083Z,75.10
2018-04-15T19:50:42.962Z,75.00
2018-04-15T19:53:13.679Z,79.00
2018-04-15T19:55:43.530Z,79.00
2018-04-15T19:58:14.397Z,75.50
2018-04-15T20:00:44.211Z,75.40
2018-04-15T20:03:14.043Z,76.30
2018-04-15T20:05:43.865Z,78.50
2018-04-15T20:08:13.718Z,80.10
2018-04-15T20:10:44.368Z,75.00
2018-04-15T20:13:14.336Z,75.00
2018-04-15T20:15:44.289Z,77.90
2018-04-15T20:18:15.977Z,81.00
2018-04-15T20:20:46.066Z,81.00
2018-04-15T20:23:15.832Z,76.40
2018-04-15T20:25:45.599Z,76.70
2018-04-15T20:28:15.409Z,78.90
2018-04-15T20:30:45.751Z,80.60
2018-04-15T20:33:16.022Z,79.10
2018-04-15T20:35:46.104Z,75.80
2018-04-15T20:38:15.892Z,77.40
2018-04-15T20:40:46.505Z,79.40
2018-04-15T20:43:17.320Z,80.90
2018-04-15T20:45:47.252Z,80.90
2018-04-15T20:48:18.458Z,84.00
2018-04-15T20:50:48.318Z,84.00
2018-04-15T20:53:19.304Z,78.10
2018-04-15T20:55:49.497Z,78.10
2018-04-15T20:58:19.277Z,79.10
2018-04-15T21:00:50.349Z,82.60
2018-04-15T21:03:20.605Z,82.60
2018-04-15T21:05:51.145Z,80.40
2018-04-15T21:08:21.317Z,77.00
2018-04-15T21:10:51.862Z,79.50
2018-04-15T21:13:22.031Z,81.20
2018-04-15T21:15:51.777Z,82.60
2018-04-15T21:18:21.941Z,78.20
2018-04-15T21:20:52.342Z,79.20
2018-04-15T21:23:22.079Z,81.40
2018-04-15T21:25:52.567Z,82.90
2018-04-15T21:28:22.787Z,79.40
2018-04-15T21:30:53.440Z,78.50
2018-04-15T21:33:23.896Z,80.70
2018-04-15T21:35:53.680Z,82.60
2018-04-15T21:38:23.658Z,82.20
2018-04-15T21:40:53.458Z,83.70
2018-04-15T21:43:24.016Z,85.80
2018-04-15T21:45:54.001Z,85.70
2018-04-15T21:48:24.789Z,80.80
2018-04-15T21:50:54.625Z,80.20
2018-04-15T21:53:24.840Z,82.10
2018-04-15T21:55:55.059Z,83.70
2018-04-15T21:58:24.827Z,81.90
2018-04-15T22:00:55.768Z,80.00
2018-04-15T22:03:26.835Z,81.50
2018-04-15T22:05:56.819Z,81.50
2018-04-15T22:08:28.604Z,82.70
2018-04-15T22:10:58.396Z,82.70
2018-04-15T22:13:29.176Z,85.70
2018-04-15T22:15:59.383Z,85.70
2018-04-15T22:18:29.845Z,83.20
2018-04-15T22:21:00.002Z,79.20
2018-04-15T22:23:31.099Z,82.40
2018-04-15T22:26:02.176Z,82.40
2018-04-15T22:28:33.375Z,80.50
2018-04-15T22:31:03.512Z,80.50
2018-04-15T22:33:33.705Z,80.10
2018-04-15T22:36:04.009Z,81.70
2018-04-15T22:38:34.649Z,83.30
2018-04-15T22:41:05.848Z,82.90
2018-04-15T22:43:37.697Z,86.40
2018-04-15T22:46:07.992Z,85.80
2018-04-15T22:48:43.766Z,84.90
2018-04-15T22:51:14.471Z,80.80
2018-04-15T22:53:45.063Z,81.90
2018-04-15T22:56:16.343Z,84.90
2018-04-15T22:58:48.781Z,84.90
2018-04-15T23:01:20.058Z,81.20
2018-04-15T23:03:50.400Z,81.10
2018-04-15T23:06:21.277Z,82.80
2018-04-15T23:08:51.951Z,84.60
2018-04-15T23:11:21.879Z,84.30
2018-04-15T23:13:52.268Z,85.90
2018-04-15T23:16:23.342Z,85.30
2018-04-15T23:18:53.668Z,85.10
2018-04-15T23:21:23.472Z,81.20
2018-04-15T23:23:53.783Z,82.20
2018-04-15T23:26:25.211Z,85.20
2018-04-15T23:28:55.594Z,85.30
2018-04-15T23:31:26.171Z,81.50
2018-04-15T23:33:56.433Z,80.40
2018-04-15T23:36:26.174Z,82.50
2018-04-15T23:38:55.957Z,85.20
2018-04-15T23:41:25.772Z,85.80
2018-04-15T23:43:56.705Z,85.90
2018-04-15T23:46:27.009Z,85.80
2018-04-15T23:48:58.242Z,85.30
2018-04-15T23:51:29.498Z,84.80
2018-04-15T23:54:00.562Z,84.80
2018-04-15T23:56:31.063Z,84.80
2018-04-15T23:59:03.032Z,84.80
